This is the latest recevied weather packets stored in our database for station/object CQ0XSM-11. If no packets are shown the sender has not sent any weather packets the latest 10 day(s).
| Time | Temp. | Humidity | Pressure | Rain* | Wind** | Luminosity | Snow |
|---|---|---|---|---|---|---|---|
| 1778073086 | 17.22° C | 38% | 992.7 hPa | 0 mm | - | - | - |
| 1778072172 | 17.22° C | 38% | 992.9 hPa | 0 mm | - | - | - |
| 1778071867 | 17.22° C | 38% | 992.8 hPa | 0 mm | - | - | - |
| 1778071565 | 17.78° C | 37% | 993 hPa | 0 mm | - | - | - |
| 1778071264 | 17.22° C | 38% | 993 hPa | 0 mm | - | - | - |
| 1778070941 | 17.22° C | 40% | 993.1 hPa | 0 mm | - | - | - |
| 1778070647 | 16.67° C | 41% | 993.1 hPa | 0 mm | - | - | - |
| 1778070329 | 16.67° C | 39% | 993.3 hPa | 0 mm | - | - | - |
| 1778070059 | 17.22° C | 40% | 993.3 hPa | 0 mm | - | - | - |
| 1778069722 | 16.67° C | 40% | 993.3 hPa | 0 mm | - | - | - |
| 1778069454 | 16.11° C | 43% | 993.4 hPa | 0 mm | - | - | - |
| 1778069116 | 16.11° C | 40% | 993.5 hPa | 0 mm | - | - | - |
| 1778068864 | 16.67° C | 41% | 993.4 hPa | 0 mm | - | - | - |
| 1778068510 | 16.11° C | 43% | 993.5 hPa | 0 mm | - | - | - |
| 1778068235 | 15.56° C | 44% | 993.6 hPa | 0 mm | - | - | - |
| 1778067899 | 15.56° C | 47% | 993.7 hPa | 0 mm | - | - | - |
| 1778067297 | 16.67° C | 41% | 993.8 hPa | 0 mm | - | - | - |
| 1778067015 | 16.67° C | 45% | 993.6 hPa | 0 mm | - | - | - |
| 1778066690 | 16.11° C | 46% | 993.8 hPa | 0 mm | - | - | - |
| 1778066414 | 16.11° C | 47% | 993.9 hPa | 0 mm | - | - | - |
| 1778066084 | 15.56° C | 48% | 994 hPa | 0 mm | - | - | - |
| 1778065489 | 16.67° C | 42% | 994 hPa | 0 mm | - | - | - |
| 1778064867 | 15.56° C | 45% | 994 hPa | 0 mm | - | - | - |
| 1778064579 | 15.56° C | 47% | 994 hPa | 0 mm | - | - | - |
| 1778064271 | 15° C | 50% | 994.1 hPa | 0 mm | - | - | - |
* Rain since midnight (hover to see other rain measurements)
** Current wind speed in m/s (hover to see current wind gust speed)